Time;durP1;ratioP1;P1;durP2;ratioP2;P2;SDS_P1;SDS_P2;PMS_P1;PMS_P2;Temp;Humidity;BMP_temperature;BMP_pressure;BME280_temperature;BME280_humidity;BME280_pressure;Samples;Min_cycle;Max_cycle;Signal;HPM_P1;HPM_P2
2024/03/09 00:03:23;;;;;;;101.60;53.70;;;;;;;-1.12;82.95;98914.43;226796;1271;22534;-81
2024/03/09 00:08:26;;;;;;;104.40;52.20;;;;;;;-1.15;82.99;98909.93;226736;1271;22550;-81
2024/03/09 00:13:28;;;;;;;94.00;50.60;;;;;;;-1.13;83.04;98906.74;226848;1267;22535;-80
2024/03/09 00:18:32;;;;;;;94.40;49.30;;;;;;;-1.14;83.51;98898.83;226787;1273;22642;-81
2024/03/09 00:23:50;;;;;;;81.60;43.20;;;;;;;-1.16;83.54;98894.33;226863;1269;22558;-82
2024/03/09 00:28:55;;;;;;;85.60;43.00;;;;;;;-1.19;83.51;98887.66;226854;1273;22567;-81
2024/03/09 00:33:57;;;;;;;90.10;46.50;;;;;;;-1.21;83.49;98886.60;226763;1270;22556;-81
2024/03/09 00:38:59;;;;;;;83.90;45.20;;;;;;;-1.23;83.39;98891.91;226793;1270;23326;-81
2024/03/09 00:44:03;;;;;;;92.70;47.10;;;;;;;-1.28;83.48;98885.70;226791;1268;22526;-81
2024/03/09 00:49:05;;;;;;;88.60;47.40;;;;;;;-1.34;83.52;98873.20;226752;1273;22523;-81
2024/03/09 00:54:07;;;;;;;88.40;45.20;;;;;;;-1.37;83.57;98870.31;226672;1271;209494;-80
2024/03/09 00:59:10;;;;;;;87.50;47.40;;;;;;;-1.39;83.88;98868.02;226778;1271;22567;-81
2024/03/09 01:04:12;;;;;;;89.60;45.70;;;;;;;-1.42;83.95;98863.69;226771;1273;22533;-81
2024/03/09 01:09:14;;;;;;;83.70;44.90;;;;;;;-1.47;83.58;98859.77;226807;1271;22512;-81
2024/03/09 01:14:16;;;;;;;82.30;43.50;;;;;;;-1.51;83.86;98858.34;226787;1273;22553;-81
2024/03/09 01:19:19;;;;;;;80.30;42.70;;;;;;;-1.52;84.17;98853.10;226687;1271;22556;-82
2024/03/09 01:24:21;;;;;;;82.70;43.50;;;;;;;-1.52;84.26;98847.17;226771;1265;22541;-82
2024/03/09 01:29:23;;;;;;;79.40;42.90;;;;;;;-1.48;84.49;98842.93;226708;1273;24227;-81
2024/03/09 01:34:27;;;;;;;88.30;46.10;;;;;;;-1.43;84.56;98842.38;226772;1272;22563;-81
2024/03/09 01:39:30;;;;;;;84.40;45.30;;;;;;;-1.42;84.25;98835.38;226770;1270;22615;-81
2024/03/09 01:44:32;;;;;;;83.80;45.40;;;;;;;-1.39;84.47;98833.98;226839;1252;22542;-81
2024/03/09 01:49:36;;;;;;;68.80;39.30;;;;;;;-1.36;84.35;98821.30;226753;1272;22654;-81
2024/03/09 01:54:41;;;;;;;74.40;40.30;;;;;;;-1.36;84.65;98820.84;226666;1270;22582;-81
2024/03/09 01:59:49;;;;;;;71.10;38.60;;;;;;;-1.40;84.16;98816.80;226703;1273;22623;-81
2024/03/09 02:04:52;;;;;;;71.30;39.10;;;;;;;-1.45;84.26;98812.27;226779;1271;22534;-81
2024/03/09 02:09:54;;;;;;;81.60;41.50;;;;;;;-1.46;84.47;98806.31;226903;1273;22568;-81
2024/03/09 02:14:56;;;;;;;78.30;43.10;;;;;;;-1.46;84.35;98802.52;226796;1273;22545;-81
2024/03/09 02:19:59;;;;;;;68.90;37.40;;;;;;;-1.44;84.53;98802.03;226762;1271;22561;-81
2024/03/09 02:25:02;;;;;;;72.50;40.30;;;;;;;-1.46;84.75;98799.05;226644;1271;22656;-81
2024/03/09 02:30:05;;;;;;;71.60;40.80;;;;;;;-1.48;84.51;98798.52;226441;1271;24621;-81
2024/03/09 02:35:08;;;;;;;78.40;42.40;;;;;;;-1.46;84.84;98800.43;226681;1270;22539;-81
2024/03/09 02:40:14;;;;;;;70.40;38.00;;;;;;;-1.39;85.33;98795.33;226791;1273;22538;-81
2024/03/09 02:45:15;;;;;;;77.40;41.30;;;;;;;-1.34;85.65;98794.02;226810;1273;22531;-81
2024/03/09 02:50:20;;;;;;;78.90;40.40;;;;;;;-1.27;85.37;98782.99;226724;1264;22543;-81
2024/03/09 02:55:23;;;;;;;80.90;43.10;;;;;;;-1.22;85.56;98781.93;226727;1270;22534;-81
2024/03/09 03:00:29;;;;;;;81.40;43.00;;;;;;;-1.22;85.31;98781.98;226784;1269;22551;-82
2024/03/09 03:05:33;;;;;;;74.90;41.30;;;;;;;-1.27;85.42;98781.42;226803;1271;22536;-81
2024/03/09 03:10:38;;;;;;;80.30;42.60;;;;;;;-1.24;85.63;98782.05;226724;1271;23586;-81
2024/03/09 03:15:41;;;;;;;76.70;42.80;;;;;;;-1.25;85.49;98779.02;226824;1273;22736;-82
2024/03/09 03:20:43;;;;;;;77.60;42.90;;;;;;;-1.28;85.39;98775.33;226778;1271;22523;-82
2024/03/09 03:25:44;;;;;;;79.20;40.90;;;;;;;-1.29;85.69;98768.48;226749;1266;22525;-82
2024/03/09 03:30:47;;;;;;;75.70;43.00;;;;;;;-1.31;85.29;98768.11;226675;1265;22751;-82
2024/03/09 03:35:49;;;;;;;71.40;39.00;;;;;;;-1.35;85.58;98767.38;226697;1273;22508;-82
2024/03/09 03:40:52;;;;;;;77.80;42.20;;;;;;;-1.38;85.59;98762.41;226734;1269;22742;-82
2024/03/09 03:45:54;;;;;;;73.50;41.60;;;;;;;-1.41;85.18;98762.63;226818;1271;22615;-81
2024/03/09 03:50:57;;;;;;;79.80;42.90;;;;;;;-1.45;85.29;98759.80;226783;1273;22535;-81
2024/03/09 03:55:59;;;;;;;73.00;39.40;;;;;;;-1.48;85.68;98763.26;226770;1273;22538;-81
2024/03/09 04:01:02;;;;;;;73.00;40.10;;;;;;;-1.43;86.03;98764.69;226753;1271;22543;-81
2024/03/09 04:06:05;;;;;;;65.30;36.80;;;;;;;-1.40;85.71;98762.23;226785;1273;25355;-81
2024/03/09 04:11:11;;;;;;;69.00;36.70;;;;;;;-1.44;85.57;98762.48;226825;1268;23075;-81
2024/03/09 04:16:14;;;;;;;69.60;37.00;;;;;;;-1.49;85.51;98759.90;226719;1271;22921;-81
2024/03/09 04:21:18;;;;;;;63.80;35.20;;;;;;;-1.56;85.21;98762.15;226715;1271;22534;-82
2024/03/09 04:26:21;;;;;;;75.10;40.10;;;;;;;-1.63;85.26;98758.17;226740;1272;22526;-82
2024/03/09 04:31:24;;;;;;;72.20;37.90;;;;;;;-1.68;85.65;98760.63;226729;1271;22534;-82
2024/03/09 04:36:29;;;;;;;73.10;39.10;;;;;;;-1.70;85.59;98757.53;226719;1271;22625;-81
2024/03/09 04:41:32;;;;;;;69.20;39.00;;;;;;;-1.74;85.70;98755.36;226687;1273;22534;-81
2024/03/09 04:46:36;;;;;;;63.00;35.30;;;;;;;-1.78;85.47;98748.57;226649;1269;22533;-81
2024/03/09 04:51:39;;;;;;;73.10;38.20;;;;;;;-1.78;85.82;98744.98;226852;1271;26020;-82
2024/03/09 04:56:41;;;;;;;73.20;41.20;;;;;;;-1.77;85.78;98751.59;226795;1273;22684;-82
2024/03/09 05:01:46;;;;;;;73.20;40.60;;;;;;;-1.78;85.60;98746.31;226791;1271;22535;-81
2024/03/09 05:06:48;;;;;;;75.60;38.40;;;;;;;-1.78;85.83;98747.02;226804;1271;22593;-81
2024/03/09 05:11:51;;;;;;;77.80;38.80;;;;;;;-1.78;86.01;98744.62;226751;1273;22703;-81
2024/03/09 05:16:53;;;;;;;83.50;44.40;;;;;;;-1.78;86.33;98747.92;226730;1270;22534;-81
2024/03/09 05:21:57;;;;;;;74.20;38.40;;;;;;;-1.75;86.22;98742.19;226711;1273;22566;-81
2024/03/09 05:26:58;;;;;;;81.30;45.40;;;;;;;-1.69;86.47;98731.41;226703;1272;22580;-81
2024/03/09 05:32:03;;;;;;;79.60;43.10;;;;;;;-1.62;86.42;98737.23;226697;1273;22612;-81
2024/03/09 05:37:06;;;;;;;86.20;46.20;;;;;;;-1.60;86.38;98730.67;226631;1272;22523;-81
2024/03/09 05:42:08;;;;;;;75.60;40.60;;;;;;;-1.58;86.73;98725.89;226714;1266;22577;-81
2024/03/09 05:47:11;;;;;;;83.90;44.10;;;;;;;-1.51;86.77;98729.15;226724;1273;22558;-81
2024/03/09 05:52:13;;;;;;;77.60;41.20;;;;;;;-1.41;86.62;98733.77;226698;1273;22541;-81
2024/03/09 05:57:15;;;;;;;73.70;41.50;;;;;;;-1.31;87.02;98733.58;226777;1271;22539;-81
2024/03/09 06:02:18;;;;;;;74.10;40.20;;;;;;;-1.24;86.90;98738.53;226802;1259;22524;-82
2024/03/09 06:07:20;;;;;;;69.00;37.60;;;;;;;-1.18;86.89;98737.42;226738;1269;22509;-82
2024/03/09 06:12:23;;;;;;;79.30;41.90;;;;;;;-1.09;86.97;98740.16;226791;1272;22540;-82
2024/03/09 06:17:26;;;;;;;76.40;42.20;;;;;;;-0.99;86.90;98741.14;226694;1271;22526;-82
2024/03/09 06:22:34;;;;;;;76.50;41.60;;;;;;;-0.90;86.89;98734.73;226740;1272;22578;-82
2024/03/09 06:27:37;;;;;;;74.00;40.80;;;;;;;-0.76;86.78;98734.56;226778;1271;24257;-81
2024/03/09 06:32:39;;;;;;;81.90;45.20;;;;;;;-0.61;86.98;98730.60;226693;1273;24168;-81
2024/03/09 06:37:41;;;;;;;79.20;45.40;;;;;;;-0.45;86.97;98726.77;226714;1272;22603;-81
2024/03/09 06:42:43;;;;;;;78.50;44.40;;;;;;;-0.28;87.07;98724.00;226758;1273;22644;-81
2024/03/09 06:47:45;;;;;;;79.20;45.10;;;;;;;-0.09;87.19;98719.89;226792;1271;25281;-81
2024/03/09 06:52:48;;;;;;;78.20;42.90;;;;;;;0.12;87.22;98719.56;226769;1273;22548;-81
2024/03/09 06:58:03;;;;;;;76.30;42.60;;;;;;;0.31;87.12;98725.30;226664;1269;22590;-82
2024/03/09 07:03:06;;;;;;;77.60;43.10;;;;;;;0.53;87.02;98725.20;226782;1272;22557;-81
2024/03/09 07:08:15;;;;;;;74.20;42.30;;;;;;;0.75;87.01;98726.53;226854;1271;22522;-82
2024/03/09 07:13:19;;;;;;;75.00;39.30;;;;;;;0.92;86.93;98722.15;226842;1271;22526;-82
2024/03/09 07:18:22;;;;;;;75.90;42.20;;;;;;;1.12;86.68;98722.70;226798;1273;22534;-82
2024/03/09 07:23:24;;;;;;;66.30;37.80;;;;;;;1.31;86.58;98727.84;226771;1271;22546;-80
2024/03/09 07:28:26;;;;;;;65.60;39.20;;;;;;;1.50;86.60;98721.85;226873;1272;22540;-81
2024/03/09 07:33:28;;;;;;;65.30;37.90;;;;;;;1.71;86.63;98715.50;226727;1273;22672;-81
2024/03/09 07:38:31;;;;;;;67.30;39.70;;;;;;;1.96;86.54;98721.30;226682;1273;22530;-82
2024/03/09 07:43:33;;;;;;;64.20;39.90;;;;;;;2.17;86.41;98722.73;226815;1272;22551;-81
2024/03/09 07:48:40;;;;;;;61.70;36.80;;;;;;;2.43;86.37;98718.98;226639;1259;22555;-81
2024/03/09 07:53:42;;;;;;;64.30;37.60;;;;;;;2.70;86.23;98717.73;226660;1261;25287;-82
2024/03/09 07:58:44;;;;;;;64.10;39.10;;;;;;;3.00;86.15;98718.64;226573;1262;22530;-80
2024/03/09 08:03:46;;;;;;;59.30;36.80;;;;;;;3.31;86.15;98713.63;226719;1272;22527;-81
2024/03/09 08:08:49;;;;;;;57.20;36.70;;;;;;;3.58;85.71;98707.23;226748;1269;22552;-81
2024/03/09 08:13:51;;;;;;;55.00;33.60;;;;;;;3.79;85.33;98697.67;226491;1260;22570;-82
2024/03/09 08:18:54;;;;;;;60.20;35.70;;;;;;;4.03;85.35;98695.05;226571;1269;22705;-81
2024/03/09 08:23:57;;;;;;;66.80;41.90;;;;;;;4.28;84.90;98688.73;226446;1266;22525;-81
2024/03/09 08:28:59;;;;;;;53.70;33.80;;;;;;;4.48;84.55;98682.59;226474;1272;22541;-81
2024/03/09 08:34:03;;;;;;;52.00;34.10;;;;;;;4.71;84.60;98682.92;226346;1267;22531;-80
2024/03/09 08:39:05;;;;;;;49.70;33.00;;;;;;;4.92;84.01;98676.75;226424;1251;22543;-81
2024/03/09 08:44:07;;;;;;;46.60;29.80;;;;;;;5.17;84.17;98672.10;226533;1273;22541;-81
2024/03/09 08:49:09;;;;;;;45.00;29.60;;;;;;;5.45;84.00;98662.93;226536;1273;22584;-80
2024/03/09 08:54:12;;;;;;;42.80;27.80;;;;;;;5.77;84.26;98664.53;226636;1269;22541;-81
2024/03/09 08:59:15;;;;;;;39.90;26.70;;;;;;;6.07;83.59;98658.39;226609;1265;22531;-81
2024/03/09 09:04:17;;;;;;;40.10;27.20;;;;;;;6.31;83.03;98661.39;226717;1272;22657;-81
2024/03/09 09:09:25;;;;;;;37.50;25.50;;;;;;;6.60;82.74;98654.41;226674;1272;22593;-81
2024/03/09 09:14:29;;;;;;;34.60;23.40;;;;;;;6.93;82.54;98653.08;226585;1273;22539;-80
2024/03/09 09:19:31;;;;;;;23.40;17.00;;;;;;;7.20;81.56;98640.13;226751;1265;22551;-81
2024/03/09 09:24:33;;;;;;;17.00;11.90;;;;;;;7.45;80.84;98629.75;226642;1273;25325;-81
2024/03/09 09:29:36;;;;;;;11.60;8.80;;;;;;;7.70;79.77;98625.17;226722;1273;22559;-80
2024/03/09 09:34:38;;;;;;;13.30;9.90;;;;;;;7.92;78.86;98624.58;226623;1272;22582;-80
2024/03/09 09:39:39;;;;;;;15.10;11.20;;;;;;;8.13;78.24;98615.67;226740;1273;22554;-81
2024/03/09 09:44:43;;;;;;;17.50;11.20;;;;;;;8.31;77.43;98609.52;226695;1272;22569;-81
2024/03/09 09:49:47;;;;;;;13.80;10.30;;;;;;;8.49;76.84;98612.37;226769;1266;22554;-81
2024/03/09 09:54:55;;;;;;;12.60;9.90;;;;;;;8.66;76.34;98606.29;226719;1269;22621;-81
2024/03/09 09:59:57;;;;;;;10.50;8.80;;;;;;;8.86;75.74;98607.30;226750;1270;22583;-82
2024/03/09 10:05:01;;;;;;;10.70;8.10;;;;;;;9.03;74.88;98605.83;226787;1265;24375;-81
2024/03/09 10:10:13;;;;;;;11.60;9.60;;;;;;;9.16;74.16;98600.13;226673;1273;22530;-80
2024/03/09 10:15:16;;;;;;;16.80;11.20;;;;;;;9.26;73.72;98591.60;226647;1270;22535;-81
2024/03/09 10:20:20;;;;;;;15.40;11.50;;;;;;;9.37;72.88;98587.11;226817;1272;25717;-80
2024/03/09 10:25:27;;;;;;;14.60;11.60;;;;;;;9.50;73.09;98590.40;226757;1270;22533;-79
2024/03/09 10:30:30;;;;;;;14.40;10.70;;;;;;;9.68;72.52;98585.11;226826;1273;22594;-80
2024/03/09 10:35:32;;;;;;;13.80;11.30;;;;;;;9.75;71.15;98585.12;226651;1254;22540;-81
2024/03/09 10:40:34;;;;;;;13.10;10.40;;;;;;;9.84;71.19;98580.15;226714;1273;22465;-80
2024/03/09 10:45:38;;;;;;;13.50;10.70;;;;;;;9.91;70.15;98563.59;226597;1251;22846;-80
2024/03/09 10:51:25;;;;;;;13.00;10.10;;;;;;;9.97;69.71;98562.01;226714;1264;22550;-81
2024/03/09 10:56:29;;;;;;;14.70;10.80;;;;;;;10.07;69.36;98559.46;225914;1273;22554;-81
2024/03/09 11:01:36;;;;;;;13.30;10.60;;;;;;;10.19;69.36;98556.14;226597;1251;22529;-80
2024/03/09 11:06:38;;;;;;;17.90;13.40;;;;;;;10.32;69.50;98547.63;226791;1273;22552;-80
2024/03/09 11:11:41;;;;;;;15.80;12.90;;;;;;;10.45;69.27;98543.26;226788;1258;22548;-80
2024/03/09 11:16:51;;;;;;;16.60;12.70;;;;;;;10.60;69.31;98536.97;226735;1273;22538;-81
2024/03/09 11:21:53;;;;;;;14.60;11.50;;;;;;;10.66;68.28;98526.33;226776;1272;22538;-82
2024/03/09 11:26:57;;;;;;;14.20;12.20;;;;;;;10.69;67.96;98524.75;226454;1257;22521;-81
2024/03/09 11:32:11;;;;;;;15.90;12.20;;;;;;;10.66;67.58;98512.59;226534;1268;23056;-82
2024/03/09 11:37:16;;;;;;;16.40;11.30;;;;;;;10.74;67.67;98516.40;226645;1256;22718;-82
2024/03/09 11:42:18;;;;;;;15.70;11.30;;;;;;;10.82;66.79;98498.44;226626;1266;22591;-80
2024/03/09 11:47:20;;;;;;;14.20;10.20;;;;;;;10.90;66.58;98490.70;226815;1272;23605;-81
2024/03/09 11:52:26;;;;;;;13.70;10.60;;;;;;;10.94;66.29;98487.23;226602;1270;22536;-81
2024/03/09 11:57:29;;;;;;;15.00;11.60;;;;;;;10.97;66.03;98476.63;226531;1269;22537;-82
2024/03/09 12:02:34;;;;;;;15.40;11.20;;;;;;;11.06;66.02;98478.20;226343;1270;22545;-81
2024/03/09 12:07:36;;;;;;;14.20;11.20;;;;;;;11.20;66.28;98474.02;226415;1273;23133;-81
2024/03/09 12:12:40;;;;;;;13.10;10.40;;;;;;;11.34;65.75;98471.77;226558;1273;23215;-81
2024/03/09 12:17:42;;;;;;;12.00;9.90;;;;;;;11.46;65.69;98463.61;226466;1273;25313;-81
2024/03/09 12:22:45;;;;;;;11.90;9.70;;;;;;;11.51;65.20;98461.95;226720;1270;22591;-80
2024/03/09 12:27:50;;;;;;;12.60;9.80;;;;;;;11.44;64.86;98461.66;226904;1273;22539;-80
2024/03/09 12:32:52;;;;;;;14.10;10.30;;;;;;;11.46;64.84;98455.46;226898;1267;22538;-81
2024/03/09 12:37:56;;;;;;;12.30;9.90;;;;;;;11.63;65.06;98444.05;226929;1273;22538;-81
2024/03/09 12:42:58;;;;;;;12.20;9.30;;;;;;;11.90;64.95;98441.19;226892;1269;22555;-81
2024/03/09 12:48:01;;;;;;;14.50;10.10;;;;;;;12.06;64.04;98434.45;226932;1272;22527;-81
2024/03/09 12:53:03;;;;;;;13.00;10.10;;;;;;;12.11;63.50;98432.77;226904;1272;191645;-81
2024/03/09 12:58:11;;;;;;;12.40;10.40;;;;;;;12.12;63.31;98430.90;226851;1273;22532;-81
2024/03/09 13:03:17;;;;;;;11.70;9.40;;;;;;;12.12;63.20;98426.05;226870;1269;22531;-81
2024/03/09 13:08:26;;;;;;;11.20;9.40;;;;;;;12.16;63.35;98420.71;227013;1263;22539;-81
2024/03/09 13:13:29;;;;;;;12.30;9.40;;;;;;;12.19;62.82;98417.55;226866;1272;22557;-81
2024/03/09 13:18:36;;;;;;;11.60;8.90;;;;;;;12.22;63.11;98415.11;226966;1272;24267;-81
2024/03/09 13:23:38;;;;;;;10.60;9.10;;;;;;;12.26;62.88;98413.02;226979;1269;22543;-81
2024/03/09 13:28:41;;;;;;;10.80;9.10;;;;;;;12.29;62.89;98412.25;226932;1256;22544;-81
2024/03/09 13:33:45;;;;;;;11.10;9.20;;;;;;;12.26;62.18;98406.95;227001;1272;23253;-80
2024/03/09 13:38:47;;;;;;;14.00;10.00;;;;;;;12.18;61.93;98405.10;226826;1273;25287;-80
2024/03/09 13:43:50;;;;;;;13.00;9.20;;;;;;;12.13;62.22;98408.95;226897;1273;22550;-81
2024/03/09 13:48:52;;;;;;;11.70;9.60;;;;;;;12.17;62.19;98407.50;226781;1273;23212;-81
2024/03/09 13:53:54;;;;;;;12.20;9.60;;;;;;;12.27;62.33;98397.87;226969;1260;22543;-81
2024/03/09 13:58:56;;;;;;;13.40;10.40;;;;;;;12.26;61.42;98392.48;226974;1267;24264;-81
2024/03/09 14:03:58;;;;;;;13.90;10.50;;;;;;;12.16;61.58;98384.61;226999;1268;22948;-81
2024/03/09 14:09:03;;;;;;;13.60;10.20;;;;;;;12.05;61.54;98378.42;226956;1270;22531;-81
2024/03/09 14:14:08;;;;;;;12.70;9.80;;;;;;;11.94;61.75;98376.75;226870;1268;22580;-81
2024/03/09 14:19:11;;;;;;;13.00;10.10;;;;;;;11.84;61.95;98372.48;226974;1251;22527;-81
2024/03/09 14:24:13;;;;;;;13.90;10.60;;;;;;;11.76;61.96;98373.95;227037;1270;23022;-81
2024/03/09 14:29:18;;;;;;;14.30;10.60;;;;;;;11.62;61.63;98366.41;227020;1267;22551;-81
2024/03/09 14:34:22;;;;;;;11.90;9.50;;;;;;;11.53;62.13;98360.98;227034;1270;24934;-81
2024/03/09 14:39:24;;;;;;;13.20;10.40;;;;;;;11.47;62.13;98361.05;227010;1272;22744;-81
2024/03/09 14:44:29;;;;;;;14.10;10.40;;;;;;;11.38;62.08;98359.38;227010;1270;22541;-80
2024/03/09 14:49:31;;;;;;;14.50;10.30;;;;;;;11.26;62.35;98355.18;226986;1271;22531;-80
2024/03/09 14:54:33;;;;;;;14.90;10.60;;;;;;;11.14;62.48;98352.00;227055;1268;22627;-81
2024/03/09 14:59:36;;;;;;;16.70;11.90;;;;;;;10.99;62.61;98349.75;226932;1270;22562;-81
2024/03/09 15:04:38;;;;;;;18.00;13.20;;;;;;;10.82;62.77;98332.77;226863;1272;22647;-79
2024/03/09 15:09:41;;;;;;;18.80;13.20;;;;;;;10.70;62.93;98328.26;226905;1272;22540;-81
2024/03/09 15:14:45;;;;;;;15.20;12.50;;;;;;;10.59;62.99;98326.36;226876;1269;22551;-80
2024/03/09 15:19:48;;;;;;;18.10;12.70;;;;;;;10.51;63.27;98326.52;226807;1270;24388;-81
2024/03/09 15:24:53;;;;;;;16.10;11.60;;;;;;;10.47;63.56;98321.05;226885;1270;22530;-81
2024/03/09 15:29:55;;;;;;;19.00;13.20;;;;;;;10.41;63.53;98322.48;226999;1273;22939;-81
2024/03/09 15:34:58;;;;;;;17.20;12.70;;;;;;;10.38;63.82;98326.75;226965;1270;22533;-80
2024/03/09 15:40:04;;;;;;;20.40;14.60;;;;;;;10.38;63.91;98325.58;227013;1270;22533;-81
2024/03/09 15:45:10;;;;;;;20.10;14.30;;;;;;;10.41;64.23;98324.11;226919;1270;22557;-80
2024/03/09 15:50:16;;;;;;;21.60;14.50;;;;;;;10.48;64.28;98313.86;226883;1267;24161;-80
2024/03/09 15:55:33;;;;;;;21.40;15.00;;;;;;;10.48;64.20;98309.11;226983;1270;22543;-80
2024/03/09 16:00:37;;;;;;;27.30;18.10;;;;;;;10.40;64.26;98302.70;226990;1268;22533;-80
2024/03/09 16:05:41;;;;;;;31.50;19.70;;;;;;;10.23;64.23;98297.60;227013;1273;22538;-80
2024/03/09 16:10:43;;;;;;;27.20;18.50;;;;;;;10.00;64.73;98299.75;226842;1270;25420;-81
2024/03/09 16:15:47;;;;;;;30.20;20.60;;;;;;;9.78;64.93;98307.39;226961;1273;22546;-80
2024/03/09 16:20:51;;;;;;;30.80;20.60;;;;;;;9.54;65.33;98305.62;226966;1272;22545;-81
2024/03/09 16:25:53;;;;;;;34.00;20.80;;;;;;;9.37;65.75;98309.20;226953;1272;22530;-80
2024/03/09 16:30:55;;;;;;;34.70;22.70;;;;;;;9.22;66.29;98313.91;226974;1270;22566;-81
2024/03/09 16:35:59;;;;;;;33.10;22.50;;;;;;;9.09;66.65;98313.47;226893;1269;22548;-81
2024/03/09 16:41:01;;;;;;;34.20;22.40;;;;;;;9.00;67.03;98310.76;227022;1272;22538;-81
2024/03/09 16:46:04;;;;;;;35.10;24.00;;;;;;;8.93;67.55;98309.27;226882;1262;22534;-81
2024/03/09 16:51:09;;;;;;;34.60;22.40;;;;;;;8.87;67.82;98310.20;226881;1268;22548;-80
2024/03/09 16:56:15;;;;;;;36.70;24.20;;;;;;;8.80;68.13;98311.73;226874;1273;22557;-81
2024/03/09 17:01:17;;;;;;;39.00;25.20;;;;;;;8.73;68.57;98313.34;226923;1270;22523;-80
2024/03/09 17:06:19;;;;;;;38.80;25.70;;;;;;;8.66;68.90;98315.90;226810;1271;22584;-81
2024/03/09 17:11:26;;;;;;;37.60;25.50;;;;;;;8.60;69.11;98314.63;226795;1270;22561;-81
2024/03/09 17:16:28;;;;;;;42.30;27.60;;;;;;;8.53;69.29;98312.88;226845;1268;22551;-81
2024/03/09 17:21:34;;;;;;;42.50;27.60;;;;;;;8.44;70.01;98313.33;226884;1269;22542;-81
2024/03/09 17:26:36;;;;;;;43.40;28.60;;;;;;;8.36;70.28;98312.20;226881;1270;22564;-81
2024/03/09 17:31:38;;;;;;;46.40;29.10;;;;;;;8.28;70.18;98310.48;226903;1270;22546;-81
2024/03/09 17:36:41;;;;;;;44.90;28.50;;;;;;;8.25;70.40;98304.41;226907;1268;22951;-81
2024/03/09 17:41:43;;;;;;;44.20;29.30;;;;;;;8.24;70.58;98306.54;226910;1270;22579;-81
2024/03/09 17:46:45;;;;;;;44.60;28.90;;;;;;;8.23;71.28;98304.58;226845;1270;22547;-80
2024/03/09 17:51:47;;;;;;;43.50;27.70;;;;;;;8.20;71.03;98307.89;226897;1272;22543;-81
2024/03/09 17:56:49;;;;;;;45.20;28.90;;;;;;;8.16;71.45;98310.62;226918;1270;22571;-81
2024/03/09 18:01:53;;;;;;;54.30;31.70;;;;;;;8.12;71.43;98309.84;226952;1270;22546;-81
2024/03/09 18:06:57;;;;;;;86.90;43.00;;;;;;;8.06;71.81;98307.57;226937;1270;22549;-81
2024/03/09 18:12:00;;;;;;;65.70;39.70;;;;;;;8.00;72.38;98315.88;226955;1273;22818;-81
2024/03/09 18:17:05;;;;;;;56.70;35.20;;;;;;;7.95;72.30;98314.15;226907;1272;22682;-81
2024/03/09 18:22:08;;;;;;;49.90;32.10;;;;;;;7.91;72.62;98310.48;226915;1265;22684;-80
2024/03/09 18:27:11;;;;;;;51.50;32.00;;;;;;;7.88;73.09;98308.05;226935;1270;22531;-81
2024/03/09 18:32:14;;;;;;;51.80;32.70;;;;;;;7.85;72.90;98304.76;226859;1271;22559;-81
2024/03/09 18:37:18;;;;;;;54.40;32.30;;;;;;;7.81;73.04;98302.31;226927;1273;22540;-81
2024/03/09 18:42:22;;;;;;;54.80;33.60;;;;;;;7.79;73.59;98302.38;226968;1269;22564;-81
2024/03/09 18:47:24;;;;;;;55.00;33.80;;;;;;;7.78;73.65;98304.63;226855;1273;22557;-81
2024/03/09 18:52:26;;;;;;;57.40;35.00;;;;;;;7.76;73.87;98296.29;226920;1273;22577;-81
2024/03/09 18:57:29;;;;;;;60.10;36.40;;;;;;;7.73;73.81;98296.61;226890;1273;22562;-80
2024/03/09 19:02:31;;;;;;;59.20;37.40;;;;;;;7.71;73.93;98302.31;226831;1269;22590;-79
2024/03/09 19:07:34;;;;;;;59.60;36.30;;;;;;;7.68;73.93;98296.48;226848;1249;25056;-80
2024/03/09 19:12:37;;;;;;;63.50;38.20;;;;;;;7.67;74.55;98297.20;226890;1273;22645;-81
2024/03/09 19:17:41;;;;;;;65.80;38.10;;;;;;;7.65;74.26;98295.66;226963;1271;22558;-81
2024/03/09 19:22:43;;;;;;;63.50;39.40;;;;;;;7.63;74.32;98294.34;226805;1273;22577;-80
2024/03/09 19:27:46;;;;;;;64.00;42.10;;;;;;;7.58;74.38;98295.09;226812;1269;22544;-80
2024/03/09 19:32:49;;;;;;;60.90;38.70;;;;;;;7.54;74.53;98290.05;226875;1270;22515;-80
2024/03/09 19:37:56;;;;;;;59.80;38.30;;;;;;;7.52;74.06;98286.75;226846;1265;22527;-81
2024/03/09 19:43:01;;;;;;;57.10;35.90;;;;;;;7.52;74.42;98288.36;226896;1270;23282;-81
2024/03/09 19:48:03;;;;;;;56.90;36.40;;;;;;;7.51;74.58;98284.75;226821;1270;22532;-80
2024/03/09 19:53:10;;;;;;;56.10;34.80;;;;;;;7.51;74.51;98286.32;226825;1266;22534;-80
2024/03/09 19:58:15;;;;;;;55.90;36.00;;;;;;;7.49;74.82;98276.23;226757;1270;23490;-80
2024/03/09 20:03:20;;;;;;;55.20;33.60;;;;;;;7.47;74.49;98279.27;226700;1273;22543;-80
2024/03/09 20:08:24;;;;;;;54.40;34.00;;;;;;;7.48;74.35;98277.77;226722;1269;22674;-81
2024/03/09 20:13:34;;;;;;;58.40;35.50;;;;;;;7.49;74.28;98277.83;226774;1271;22518;-80
2024/03/09 20:18:37;;;;;;;53.50;32.90;;;;;;;7.50;74.15;98279.30;226894;1271;22538;-80
2024/03/09 20:23:39;;;;;;;55.60;34.10;;;;;;;7.50;74.10;98279.40;226867;1270;22529;-81
2024/03/09 20:28:43;;;;;;;57.60;33.20;;;;;;;7.51;73.96;98272.70;226833;1270;22570;-80
2024/03/09 20:33:45;;;;;;;50.10;31.10;;;;;;;7.52;73.89;98269.95;226820;1273;23127;-80
2024/03/09 20:38:49;;;;;;;52.90;32.10;;;;;;;7.50;73.59;98267.67;226803;1265;22557;-80
2024/03/09 20:43:51;;;;;;;51.80;32.50;;;;;;;7.49;73.58;98266.92;226720;1271;22533;-81
2024/03/09 20:48:54;;;;;;;49.70;31.50;;;;;;;7.47;73.27;98268.20;226739;1270;22533;-80
2024/03/09 20:54:02;;;;;;;39.50;25.80;;;;;;;7.45;73.34;98268.63;226747;1271;22530;-81
2024/03/09 20:59:09;;;;;;;31.90;20.10;;;;;;;7.45;72.97;98271.27;226704;1269;22589;-80
2024/03/09 21:04:12;;;;;;;27.20;18.50;;;;;;;7.50;72.69;98273.00;226779;1273;22523;-81
2024/03/09 21:09:14;;;;;;;30.90;19.50;;;;;;;7.54;72.57;98276.38;226674;1268;22551;-81
2024/03/09 21:14:16;;;;;;;28.00;18.40;;;;;;;7.58;71.81;98275.70;226808;1271;22558;-81
2024/03/09 21:19:19;;;;;;;37.60;22.80;;;;;;;7.62;71.99;98277.14;226840;1270;22527;-82
2024/03/09 21:24:22;;;;;;;34.50;22.40;;;;;;;7.63;72.03;98280.34;226773;1271;22607;-81
2024/03/09 21:29:25;;;;;;;35.10;21.20;;;;;;;7.63;71.73;98277.34;226904;1270;22522;-81
2024/03/09 21:34:27;;;;;;;30.60;19.90;;;;;;;7.64;71.52;98277.61;226830;1271;22546;-80
2024/03/09 21:39:32;;;;;;;32.40;21.30;;;;;;;7.64;71.28;98265.80;226843;1270;22594;-81
2024/03/09 21:44:37;;;;;;;34.20;21.20;;;;;;;7.64;71.03;98263.20;226746;1270;22553;-81
2024/03/09 21:49:39;;;;;;;34.70;21.00;;;;;;;7.61;71.17;98254.03;226682;1269;23696;-80
2024/03/09 21:54:42;;;;;;;33.20;21.50;;;;;;;7.58;70.97;98254.30;226713;1268;22610;-82
2024/03/09 21:59:44;;;;;;;35.60;21.80;;;;;;;7.55;71.23;98254.20;226682;1273;22529;-80
2024/03/09 22:04:46;;;;;;;34.70;21.80;;;;;;;7.55;70.95;98248.41;226779;1272;22535;-80
2024/03/09 22:09:53;;;;;;;31.60;21.10;;;;;;;7.55;70.68;98243.57;226761;1273;24252;-80
2024/03/09 22:14:57;;;;;;;32.00;20.10;;;;;;;7.57;70.69;98243.95;226832;1268;22537;-80
2024/03/09 22:20:02;;;;;;;34.40;19.50;;;;;;;7.57;70.53;98239.14;226697;1271;22543;-80
2024/03/09 22:25:05;;;;;;;28.50;18.00;;;;;;;7.57;70.54;98245.60;226671;1269;24791;-81
2024/03/09 22:30:10;;;;;;;35.20;21.50;;;;;;;7.57;70.55;98242.60;226700;1273;22561;-81
2024/03/09 22:35:14;;;;;;;40.50;24.00;;;;;;;7.55;70.31;98243.41;226712;1271;22543;-81
2024/03/09 22:40:17;;;;;;;39.80;23.70;;;;;;;7.52;70.80;98235.99;226713;1273;22533;-80
2024/03/09 22:45:23;;;;;;;40.20;23.80;;;;;;;7.44;70.94;98227.59;226696;1273;22548;-80
2024/03/09 22:50:27;;;;;;;39.60;24.60;;;;;;;7.34;70.78;98224.55;226795;1273;22531;-82
2024/03/09 22:55:29;;;;;;;40.20;24.80;;;;;;;7.24;71.26;98218.27;226662;1272;22583;-81
2024/03/09 23:00:37;;;;;;;40.10;25.60;;;;;;;7.11;71.36;98214.19;226674;1273;25411;-80
2024/03/09 23:05:39;;;;;;;40.20;25.90;;;;;;;6.99;71.79;98217.24;226695;1271;22915;-79
2024/03/09 23:10:42;;;;;;;39.70;25.10;;;;;;;6.93;71.70;98216.43;226693;1271;25368;-81